sensor_id;sensor_type;location;lat;lon;timestamp;temperature;humidity
23385;DHT22;11865;45.394;10.978;2023-01-16T00:01:53;7.20;99.90
23385;DHT22;11865;45.394;10.978;2023-01-16T00:04:21;7.40;99.90
23385;DHT22;11865;45.394;10.978;2023-01-16T00:06:48;7.40;99.90
23385;DHT22;11865;45.394;10.978;2023-01-16T00:09:15;7.40;99.90
23385;DHT22;11865;45.394;10.978;2023-01-16T00:11:43;7.40;99.90
23385;DHT22;11865;45.394;10.978;2023-01-16T00:14:10;7.40;99.90
23385;DHT22;11865;45.394;10.978;2023-01-16T00:16:37;7.30;99.90
23385;DHT22;11865;45.394;10.978;2023-01-16T00:19:05;7.40;99.90
23385;DHT22;11865;45.394;10.978;2023-01-16T00:21:32;7.40;99.90
23385;DHT22;11865;45.394;10.978;2023-01-16T00:23:59;7.40;99.90
23385;DHT22;11865;45.394;10.978;2023-01-16T00:26:27;7.40;99.90
23385;DHT22;11865;45.394;10.978;2023-01-16T00:28:55;7.30;99.90
23385;DHT22;11865;45.394;10.978;2023-01-16T00:31:22;7.30;99.90
23385;DHT22;11865;45.394;10.978;2023-01-16T00:33:52;7.30;99.90
23385;DHT22;11865;45.394;10.978;2023-01-16T00:36:20;7.30;99.90
23385;DHT22;11865;45.394;10.978;2023-01-16T00:38:47;7.20;99.90
23385;DHT22;11865;45.394;10.978;2023-01-16T00:41:14;7.10;99.90
23385;DHT22;11865;45.394;10.978;2023-01-16T00:43:42;7.00;99.90
23385;DHT22;11865;45.394;10.978;2023-01-16T00:46:09;7.10;99.90
23385;DHT22;11865;45.394;10.978;2023-01-16T00:48:36;7.20;99.90
23385;DHT22;11865;45.394;10.978;2023-01-16T00:51:03;7.20;99.90
23385;DHT22;11865;45.394;10.978;2023-01-16T00:53:31;7.20;99.90
23385;DHT22;11865;45.394;10.978;2023-01-16T00:55:58;7.20;99.90
23385;DHT22;11865;45.394;10.978;2023-01-16T00:58:25;7.20;99.90
23385;DHT22;11865;45.394;10.978;2023-01-16T01:00:52;7.20;99.90
23385;DHT22;11865;45.394;10.978;2023-01-16T01:03:20;7.10;99.90
23385;DHT22;11865;45.394;10.978;2023-01-16T01:05:47;7.20;99.90
23385;DHT22;11865;45.394;10.978;2023-01-16T01:08:14;7.20;99.90
23385;DHT22;11865;45.394;10.978;2023-01-16T01:10:41;7.20;99.90
23385;DHT22;11865;45.394;10.978;2023-01-16T01:13:09;7.10;99.90
23385;DHT22;11865;45.394;10.978;2023-01-16T01:15:36;7.20;99.90
23385;DHT22;11865;45.394;10.978;2023-01-16T01:18:04;7.20;99.90
23385;DHT22;11865;45.394;10.978;2023-01-16T01:20:40;7.20;99.90
23385;DHT22;11865;45.394;10.978;2023-01-16T01:23:07;7.10;99.90
23385;DHT22;11865;45.394;10.978;2023-01-16T01:25:36;6.90;99.90
23385;DHT22;11865;45.394;10.978;2023-01-16T01:28:04;7.10;99.90
23385;DHT22;11865;45.394;10.978;2023-01-16T01:30:31;7.10;99.90
23385;DHT22;11865;45.394;10.978;2023-01-16T01:32:58;7.00;99.90
23385;DHT22;11865;45.394;10.978;2023-01-16T01:35:25;7.00;99.90
23385;DHT22;11865;45.394;10.978;2023-01-16T01:37:53;7.00;99.90
23385;DHT22;11865;45.394;10.978;2023-01-16T01:40:20;7.00;99.90
23385;DHT22;11865;45.394;10.978;2023-01-16T01:42:47;7.00;99.90
23385;DHT22;11865;45.394;10.978;2023-01-16T01:45:20;6.90;99.90
23385;DHT22;11865;45.394;10.978;2023-01-16T01:48:00;7.00;99.90
23385;DHT22;11865;45.394;10.978;2023-01-16T01:52:55;7.10;99.90
23385;DHT22;11865;45.394;10.978;2023-01-16T01:55:24;7.20;99.90
23385;DHT22;11865;45.394;10.978;2023-01-16T01:57:53;7.10;99.90
23385;DHT22;11865;45.394;10.978;2023-01-16T02:00:24;7.00;99.90
23385;DHT22;11865;45.394;10.978;2023-01-16T02:03:05;7.00;99.90
23385;DHT22;11865;45.394;10.978;2023-01-16T02:05:37;7.10;99.90
23385;DHT22;11865;45.394;10.978;2023-01-16T02:08:07;7.20;99.90
23385;DHT22;11865;45.394;10.978;2023-01-16T02:10:36;7.10;99.90
23385;DHT22;11865;45.394;10.978;2023-01-16T02:13:05;7.20;99.90
23385;DHT22;11865;45.394;10.978;2023-01-16T02:15:33;7.20;99.90
23385;DHT22;11865;45.394;10.978;2023-01-16T02:18:00;7.20;99.90
23385;DHT22;11865;45.394;10.978;2023-01-16T02:21:01;7.20;99.90
23385;DHT22;11865;45.394;10.978;2023-01-16T02:23:47;7.20;99.90
23385;DHT22;11865;45.394;10.978;2023-01-16T02:36:53;7.00;99.90
23385;DHT22;11865;45.394;10.978;2023-01-16T02:39:33;6.90;99.90
23385;DHT22;11865;45.394;10.978;2023-01-16T02:42:13;6.90;99.90
23385;DHT22;11865;45.394;10.978;2023-01-16T02:44:51;6.80;99.90
23385;DHT22;11865;45.394;10.978;2023-01-16T02:48:05;7.00;99.90
23385;DHT22;11865;45.394;10.978;2023-01-16T02:50:22;6.90;99.90
23385;DHT22;11865;45.394;10.978;2023-01-16T02:55:28;6.60;99.90
23385;DHT22;11865;45.394;10.978;2023-01-16T02:57:59;6.70;99.90
23385;DHT22;11865;45.394;10.978;2023-01-16T03:00:27;6.60;99.90
23385;DHT22;11865;45.394;10.978;2023-01-16T03:02:55;6.60;99.90
23385;DHT22;11865;45.394;10.978;2023-01-16T03:05:22;6.50;99.90
23385;DHT22;11865;45.394;10.978;2023-01-16T03:24:11;6.70;99.90
23385;DHT22;11865;45.394;10.978;2023-01-16T03:26:44;6.70;99.90
23385;DHT22;11865;45.394;10.978;2023-01-16T03:29:23;6.70;99.90
23385;DHT22;11865;45.394;10.978;2023-01-16T03:32:01;6.70;99.90
23385;DHT22;11865;45.394;10.978;2023-01-16T03:37:02;6.80;99.90
23385;DHT22;11865;45.394;10.978;2023-01-16T03:39:36;6.70;99.90
23385;DHT22;11865;45.394;10.978;2023-01-16T03:42:05;6.50;99.90
23385;DHT22;11865;45.394;10.978;2023-01-16T03:44:38;6.30;99.90
23385;DHT22;11865;45.394;10.978;2023-01-16T03:47:09;6.10;99.90
23385;DHT22;11865;45.394;10.978;2023-01-16T03:49:38;5.90;99.90
23385;DHT22;11865;45.394;10.978;2023-01-16T03:52:09;6.00;99.90
23385;DHT22;11865;45.394;10.978;2023-01-16T03:57:09;5.80;99.90
23385;DHT22;11865;45.394;10.978;2023-01-16T03:59:37;5.80;99.90
23385;DHT22;11865;45.394;10.978;2023-01-16T04:02:27;5.60;99.90
23385;DHT22;11865;45.394;10.978;2023-01-16T04:04:55;5.50;99.90
23385;DHT22;11865;45.394;10.978;2023-01-16T04:07:32;5.50;99.90
23385;DHT22;11865;45.394;10.978;2023-01-16T04:10:04;5.50;99.90
23385;DHT22;11865;45.394;10.978;2023-01-16T04:12:33;5.50;99.90
23385;DHT22;11865;45.394;10.978;2023-01-16T04:15:03;5.60;99.90
23385;DHT22;11865;45.394;10.978;2023-01-16T04:17:36;5.70;99.90
23385;DHT22;11865;45.394;10.978;2023-01-16T04:20:04;5.80;99.90
23385;DHT22;11865;45.394;10.978;2023-01-16T04:22:32;5.80;99.90
23385;DHT22;11865;45.394;10.978;2023-01-16T04:25:00;5.80;99.90
23385;DHT22;11865;45.394;10.978;2023-01-16T04:27:28;5.90;99.90
23385;DHT22;11865;45.394;10.978;2023-01-16T04:29:55;6.00;99.90
23385;DHT22;11865;45.394;10.978;2023-01-16T04:32:22;6.10;99.90
23385;DHT22;11865;45.394;10.978;2023-01-16T04:34:50;6.10;99.90
23385;DHT22;11865;45.394;10.978;2023-01-16T04:37:17;6.00;99.90
23385;DHT22;11865;45.394;10.978;2023-01-16T04:39:44;6.20;99.90
23385;DHT22;11865;45.394;10.978;2023-01-16T04:42:14;6.40;99.90
23385;DHT22;11865;45.394;10.978;2023-01-16T04:44:42;6.40;99.90
23385;DHT22;11865;45.394;10.978;2023-01-16T04:47:09;6.60;99.90
23385;DHT22;11865;45.394;10.978;2023-01-16T04:49:36;6.60;99.90
23385;DHT22;11865;45.394;10.978;2023-01-16T04:52:04;6.70;99.90
23385;DHT22;11865;45.394;10.978;2023-01-16T04:54:31;6.70;99.90
23385;DHT22;11865;45.394;10.978;2023-01-16T04:56:58;6.80;99.90
23385;DHT22;11865;45.394;10.978;2023-01-16T04:59:25;6.60;99.90
23385;DHT22;11865;45.394;10.978;2023-01-16T05:01:52;6.60;99.90
23385;DHT22;11865;45.394;10.978;2023-01-16T05:04:20;6.60;99.90
23385;DHT22;11865;45.394;10.978;2023-01-16T05:06:48;6.60;99.90
23385;DHT22;11865;45.394;10.978;2023-01-16T05:09:15;6.60;99.90
23385;DHT22;11865;45.394;10.978;2023-01-16T05:11:45;6.60;99.90
23385;DHT22;11865;45.394;10.978;2023-01-16T05:14:31;6.60;99.90
23385;DHT22;11865;45.394;10.978;2023-01-16T05:16:58;6.70;99.90
23385;DHT22;11865;45.394;10.978;2023-01-16T05:19:25;6.70;99.90
23385;DHT22;11865;45.394;10.978;2023-01-16T05:21:53;6.70;99.90
23385;DHT22;11865;45.394;10.978;2023-01-16T05:24:20;6.50;99.90
23385;DHT22;11865;45.394;10.978;2023-01-16T05:26:49;6.50;99.90
23385;DHT22;11865;45.394;10.978;2023-01-16T05:29:16;6.50;99.90
23385;DHT22;11865;45.394;10.978;2023-01-16T05:31:43;6.40;99.90
23385;DHT22;11865;45.394;10.978;2023-01-16T05:34:11;6.30;99.90
23385;DHT22;11865;45.394;10.978;2023-01-16T05:36:38;6.40;99.90
23385;DHT22;11865;45.394;10.978;2023-01-16T05:39:05;6.40;99.90
23385;DHT22;11865;45.394;10.978;2023-01-16T05:41:32;6.50;99.90
23385;DHT22;11865;45.394;10.978;2023-01-16T05:43:59;6.50;99.90
23385;DHT22;11865;45.394;10.978;2023-01-16T05:46:26;6.50;99.90
23385;DHT22;11865;45.394;10.978;2023-01-16T05:48:54;6.50;99.90
23385;DHT22;11865;45.394;10.978;2023-01-16T05:51:21;6.50;99.90
23385;DHT22;11865;45.394;10.978;2023-01-16T05:53:49;6.50;99.90
23385;DHT22;11865;45.394;10.978;2023-01-16T05:56:16;6.40;99.90
23385;DHT22;11865;45.394;10.978;2023-01-16T05:58:46;6.40;99.90
23385;DHT22;11865;45.394;10.978;2023-01-16T06:01:13;6.30;99.90
23385;DHT22;11865;45.394;10.978;2023-01-16T06:03:40;6.30;99.90
23385;DHT22;11865;45.394;10.978;2023-01-16T06:06:08;6.30;99.90
23385;DHT22;11865;45.394;10.978;2023-01-16T06:08:35;6.20;99.90
23385;DHT22;11865;45.394;10.978;2023-01-16T06:11:02;6.30;99.90
23385;DHT22;11865;45.394;10.978;2023-01-16T06:13:29;6.30;99.90
23385;DHT22;11865;45.394;10.978;2023-01-16T06:16:07;6.20;99.90
23385;DHT22;11865;45.394;10.978;2023-01-16T06:18:34;6.10;99.90
23385;DHT22;11865;45.394;10.978;2023-01-16T06:21:01;6.10;99.90
23385;DHT22;11865;45.394;10.978;2023-01-16T06:23:28;5.80;99.90
23385;DHT22;11865;45.394;10.978;2023-01-16T06:25:57;6.00;99.90
23385;DHT22;11865;45.394;10.978;2023-01-16T06:28:24;6.10;99.90
23385;DHT22;11865;45.394;10.978;2023-01-16T06:30:51;6.10;99.90
23385;DHT22;11865;45.394;10.978;2023-01-16T06:33:19;6.20;99.90
23385;DHT22;11865;45.394;10.978;2023-01-16T06:35:46;6.10;99.90
23385;DHT22;11865;45.394;10.978;2023-01-16T06:38:15;6.10;99.90
23385;DHT22;11865;45.394;10.978;2023-01-16T06:40:43;6.10;99.90
23385;DHT22;11865;45.394;10.978;2023-01-16T06:43:11;6.30;99.90
23385;DHT22;11865;45.394;10.978;2023-01-16T06:45:38;6.30;99.90
23385;DHT22;11865;45.394;10.978;2023-01-16T06:48:06;6.40;99.90
23385;DHT22;11865;45.394;10.978;2023-01-16T06:50:33;6.50;99.90
23385;DHT22;11865;45.394;10.978;2023-01-16T06:53:00;6.50;99.90
23385;DHT22;11865;45.394;10.978;2023-01-16T06:55:28;6.60;99.90
23385;DHT22;11865;45.394;10.978;2023-01-16T06:57:55;6.50;99.90
23385;DHT22;11865;45.394;10.978;2023-01-16T07:00:22;6.50;99.90
23385;DHT22;11865;45.394;10.978;2023-01-16T07:02:53;6.60;99.90
23385;DHT22;11865;45.394;10.978;2023-01-16T07:05:22;6.50;99.90
23385;DHT22;11865;45.394;10.978;2023-01-16T07:07:49;6.50;99.90
23385;DHT22;11865;45.394;10.978;2023-01-16T07:10:17;6.60;99.90
23385;DHT22;11865;45.394;10.978;2023-01-16T07:12:46;6.60;99.90
23385;DHT22;11865;45.394;10.978;2023-01-16T07:15:13;6.70;99.90
23385;DHT22;11865;45.394;10.978;2023-01-16T07:17:59;6.70;99.90
23385;DHT22;11865;45.394;10.978;2023-01-16T07:20:50;6.70;99.90
23385;DHT22;11865;45.394;10.978;2023-01-16T07:23:37;6.90;99.90
23385;DHT22;11865;45.394;10.978;2023-01-16T07:26:04;6.70;99.90
23385;DHT22;11865;45.394;10.978;2023-01-16T07:28:32;6.60;99.90
23385;DHT22;11865;45.394;10.978;2023-01-16T07:31:01;6.70;99.90
23385;DHT22;11865;45.394;10.978;2023-01-16T07:33:30;6.50;99.90
23385;DHT22;11865;45.394;10.978;2023-01-16T07:35:57;6.50;99.90
23385;DHT22;11865;45.394;10.978;2023-01-16T07:38:24;6.50;99.90
23385;DHT22;11865;45.394;10.978;2023-01-16T07:40:52;6.60;99.90
23385;DHT22;11865;45.394;10.978;2023-01-16T07:43:19;6.60;99.90
23385;DHT22;11865;45.394;10.978;2023-01-16T07:45:46;6.80;99.90
23385;DHT22;11865;45.394;10.978;2023-01-16T07:48:19;6.80;99.90
23385;DHT22;11865;45.394;10.978;2023-01-16T07:50:50;6.90;99.90
23385;DHT22;11865;45.394;10.978;2023-01-16T07:53:18;7.00;99.90
23385;DHT22;11865;45.394;10.978;2023-01-16T07:55:49;6.90;99.90
23385;DHT22;11865;45.394;10.978;2023-01-16T07:58:17;6.90;99.90
23385;DHT22;11865;45.394;10.978;2023-01-16T08:00:44;7.00;99.90
23385;DHT22;11865;45.394;10.978;2023-01-16T08:03:11;7.00;99.90
23385;DHT22;11865;45.394;10.978;2023-01-16T08:05:40;7.00;99.90
23385;DHT22;11865;45.394;10.978;2023-01-16T08:08:10;7.10;99.90
23385;DHT22;11865;45.394;10.978;2023-01-16T08:10:37;7.10;99.90
23385;DHT22;11865;45.394;10.978;2023-01-16T08:13:05;7.10;99.90
23385;DHT22;11865;45.394;10.978;2023-01-16T08:15:32;6.90;99.90
23385;DHT22;11865;45.394;10.978;2023-01-16T08:17:59;7.10;99.90
23385;DHT22;11865;45.394;10.978;2023-01-16T08:20:29;7.10;99.90
23385;DHT22;11865;45.394;10.978;2023-01-16T08:22:56;6.90;99.90
23385;DHT22;11865;45.394;10.978;2023-01-16T08:25:25;7.00;99.90
23385;DHT22;11865;45.394;10.978;2023-01-16T08:27:52;7.10;99.90
23385;DHT22;11865;45.394;10.978;2023-01-16T08:30:19;7.10;99.90
23385;DHT22;11865;45.394;10.978;2023-01-16T08:32:47;7.20;99.90
23385;DHT22;11865;45.394;10.978;2023-01-16T08:35:14;7.30;99.90
23385;DHT22;11865;45.394;10.978;2023-01-16T08:37:47;7.40;99.90
23385;DHT22;11865;45.394;10.978;2023-01-16T08:40:14;7.40;99.90
23385;DHT22;11865;45.394;10.978;2023-01-16T08:42:42;7.50;99.90
23385;DHT22;11865;45.394;10.978;2023-01-16T08:45:28;7.40;99.90
23385;DHT22;11865;45.394;10.978;2023-01-16T08:48:20;7.50;99.90
23385;DHT22;11865;45.394;10.978;2023-01-16T08:51:08;7.50;99.90
23385;DHT22;11865;45.394;10.978;2023-01-16T08:53:50;7.50;99.90
23385;DHT22;11865;45.394;10.978;2023-01-16T08:56:17;7.50;99.90
23385;DHT22;11865;45.394;10.978;2023-01-16T08:58:45;7.50;99.90
23385;DHT22;11865;45.394;10.978;2023-01-16T09:01:12;7.40;99.90
23385;DHT22;11865;45.394;10.978;2023-01-16T09:03:39;7.50;99.90
23385;DHT22;11865;45.394;10.978;2023-01-16T09:06:07;7.40;99.90
23385;DHT22;11865;45.394;10.978;2023-01-16T09:08:34;7.20;99.90
23385;DHT22;11865;45.394;10.978;2023-01-16T09:11:01;7.30;99.90
23385;DHT22;11865;45.394;10.978;2023-01-16T09:13:47;7.50;99.90
23385;DHT22;11865;45.394;10.978;2023-01-16T09:16:18;7.60;99.90
23385;DHT22;11865;45.394;10.978;2023-01-16T09:18:46;7.80;99.90
23385;DHT22;11865;45.394;10.978;2023-01-16T09:21:14;8.00;99.90
23385;DHT22;11865;45.394;10.978;2023-01-16T09:23:41;8.10;99.90
23385;DHT22;11865;45.394;10.978;2023-01-16T09:26:09;7.80;99.90
23385;DHT22;11865;45.394;10.978;2023-01-16T09:28:36;8.10;99.90
23385;DHT22;11865;45.394;10.978;2023-01-16T09:31:03;8.10;99.90
23385;DHT22;11865;45.394;10.978;2023-01-16T09:33:30;7.80;99.90
23385;DHT22;11865;45.394;10.978;2023-01-16T09:35:58;8.20;99.90
23385;DHT22;11865;45.394;10.978;2023-01-16T09:38:26;8.10;99.90
23385;DHT22;11865;45.394;10.978;2023-01-16T09:40:55;8.40;99.90
23385;DHT22;11865;45.394;10.978;2023-01-16T09:46:12;8.20;99.90
23385;DHT22;11865;45.394;10.978;2023-01-16T09:48:48;8.30;99.90
23385;DHT22;11865;45.394;10.978;2023-01-16T09:51:20;8.00;99.90
23385;DHT22;11865;45.394;10.978;2023-01-16T09:56:39;8.10;99.90
23385;DHT22;11865;45.394;10.978;2023-01-16T09:59:31;8.30;99.90
23385;DHT22;11865;45.394;10.978;2023-01-16T10:02:05;8.10;99.90
23385;DHT22;11865;45.394;10.978;2023-01-16T10:04:35;8.40;99.90
23385;DHT22;11865;45.394;10.978;2023-01-16T10:09:46;8.40;99.90
23385;DHT22;11865;45.394;10.978;2023-01-16T10:12:16;8.40;99.90
23385;DHT22;11865;45.394;10.978;2023-01-16T10:20:42;8.10;99.90
23385;DHT22;11865;45.394;10.978;2023-01-16T10:30:31;8.20;99.90
23385;DHT22;11865;45.394;10.978;2023-01-16T10:33:03;8.20;99.90
23385;DHT22;11865;45.394;10.978;2023-01-16T10:35:33;8.20;99.90
23385;DHT22;11865;45.394;10.978;2023-01-16T10:38:06;8.00;99.90
23385;DHT22;11865;45.394;10.978;2023-01-16T10:40:34;8.10;99.90
23385;DHT22;11865;45.394;10.978;2023-01-16T10:46:10;8.10;99.90
23385;DHT22;11865;45.394;10.978;2023-01-16T10:49:16;8.40;99.90
23385;DHT22;11865;45.394;10.978;2023-01-16T10:51:56;8.10;99.90
23385;DHT22;11865;45.394;10.978;2023-01-16T10:54:24;8.40;99.90
23385;DHT22;11865;45.394;10.978;2023-01-16T10:56:51;8.60;99.90
23385;DHT22;11865;45.394;10.978;2023-01-16T10:59:18;7.90;99.90
23385;DHT22;11865;45.394;10.978;2023-01-16T11:01:46;8.50;99.90
23385;DHT22;11865;45.394;10.978;2023-01-16T11:04:16;8.30;99.90
23385;DHT22;11865;45.394;10.978;2023-01-16T11:06:44;8.40;99.90
23385;DHT22;11865;45.394;10.978;2023-01-16T11:11:40;8.20;99.90
23385;DHT22;11865;45.394;10.978;2023-01-16T11:14:31;8.20;99.90
23385;DHT22;11865;45.394;10.978;2023-01-16T11:17:25;8.40;99.90
23385;DHT22;11865;45.394;10.978;2023-01-16T11:20:19;8.20;99.90
23385;DHT22;11865;45.394;10.978;2023-01-16T11:22:52;8.00;99.90
23385;DHT22;11865;45.394;10.978;2023-01-16T11:25:23;8.20;99.90
23385;DHT22;11865;45.394;10.978;2023-01-16T11:27:52;7.90;99.90
23385;DHT22;11865;45.394;10.978;2023-01-16T11:30:21;7.80;99.90
23385;DHT22;11865;45.394;10.978;2023-01-16T11:32:48;8.00;99.90
23385;DHT22;11865;45.394;10.978;2023-01-16T11:35:17;8.00;99.90
23385;DHT22;11865;45.394;10.978;2023-01-16T11:37:45;7.90;99.90
23385;DHT22;11865;45.394;10.978;2023-01-16T11:40:19;8.00;99.90
23385;DHT22;11865;45.394;10.978;2023-01-16T11:42:50;7.90;99.90
23385;DHT22;11865;45.394;10.978;2023-01-16T11:45:39;8.00;99.90
23385;DHT22;11865;45.394;10.978;2023-01-16T11:48:25;7.80;99.90
23385;DHT22;11865;45.394;10.978;2023-01-16T11:50:54;7.90;99.90
23385;DHT22;11865;45.394;10.978;2023-01-16T11:53:22;7.90;99.90
23385;DHT22;11865;45.394;10.978;2023-01-16T11:58:35;7.90;99.90
23385;DHT22;11865;45.394;10.978;2023-01-16T12:01:45;8.00;99.90
23385;DHT22;11865;45.394;10.978;2023-01-16T12:04:24;7.90;99.90
23385;DHT22;11865;45.394;10.978;2023-01-16T12:07:05;8.00;99.90
23385;DHT22;11865;45.394;10.978;2023-01-16T12:09:43;7.90;99.90
23385;DHT22;11865;45.394;10.978;2023-01-16T12:15:04;7.70;99.90
23385;DHT22;11865;45.394;10.978;2023-01-16T12:30:39;8.30;99.90
23385;DHT22;11865;45.394;10.978;2023-01-16T12:36:33;8.20;99.90
23385;DHT22;11865;45.394;10.978;2023-01-16T12:47:21;8.20;99.90
23385;DHT22;11865;45.394;10.978;2023-01-16T12:49:57;8.10;99.90
23385;DHT22;11865;45.394;10.978;2023-01-16T12:52:39;8.10;99.90
23385;DHT22;11865;45.394;10.978;2023-01-16T12:55:17;8.20;99.90
23385;DHT22;11865;45.394;10.978;2023-01-16T13:00:30;8.10;99.90
23385;DHT22;11865;45.394;10.978;2023-01-16T13:03:00;8.00;99.90
23385;DHT22;11865;45.394;10.978;2023-01-16T13:05:31;7.90;99.90
23385;DHT22;11865;45.394;10.978;2023-01-16T13:08:02;8.00;99.90
23385;DHT22;11865;45.394;10.978;2023-01-16T13:10:36;7.80;99.90
23385;DHT22;11865;45.394;10.978;2023-01-16T13:13:26;7.80;99.90
23385;DHT22;11865;45.394;10.978;2023-01-16T13:16:41;7.90;99.90
23385;DHT22;11865;45.394;10.978;2023-01-16T13:18:46;7.80;99.90
23385;DHT22;11865;45.394;10.978;2023-01-16T13:21:19;7.80;99.90
23385;DHT22;11865;45.394;10.978;2023-01-16T13:23:50;7.90;99.90
23385;DHT22;11865;45.394;10.978;2023-01-16T13:26:19;7.80;99.90
23385;DHT22;11865;45.394;10.978;2023-01-16T13:28:53;7.90;99.90
23385;DHT22;11865;45.394;10.978;2023-01-16T13:31:27;7.90;99.90
23385;DHT22;11865;45.394;10.978;2023-01-16T13:33:58;7.80;99.90
23385;DHT22;11865;45.394;10.978;2023-01-16T13:36:44;7.90;99.90
23385;DHT22;11865;45.394;10.978;2023-01-16T13:42:00;7.90;99.90
23385;DHT22;11865;45.394;10.978;2023-01-16T13:44:33;7.80;99.90
23385;DHT22;11865;45.394;10.978;2023-01-16T13:47:25;7.90;99.90
23385;DHT22;11865;45.394;10.978;2023-01-16T13:50:06;8.00;99.90
23385;DHT22;11865;45.394;10.978;2023-01-16T13:52:34;8.00;99.90
23385;DHT22;11865;45.394;10.978;2023-01-16T13:55:02;7.80;99.90
23385;DHT22;11865;45.394;10.978;2023-01-16T13:57:33;7.70;99.90
23385;DHT22;11865;45.394;10.978;2023-01-16T14:00:00;7.80;99.90
23385;DHT22;11865;45.394;10.978;2023-01-16T14:10:41;7.80;99.90
23385;DHT22;11865;45.394;10.978;2023-01-16T14:13:20;7.70;99.90
23385;DHT22;11865;45.394;10.978;2023-01-16T14:18:42;7.60;99.90
23385;DHT22;11865;45.394;10.978;2023-01-16T14:21:28;7.60;99.90
23385;DHT22;11865;45.394;10.978;2023-01-16T14:23:57;7.60;99.90
23385;DHT22;11865;45.394;10.978;2023-01-16T14:29:01;7.60;99.90
23385;DHT22;11865;45.394;10.978;2023-01-16T14:31:36;7.70;99.90
23385;DHT22;11865;45.394;10.978;2023-01-16T14:34:21;7.70;99.90
23385;DHT22;11865;45.394;10.978;2023-01-16T14:36:50;7.70;99.90
23385;DHT22;11865;45.394;10.978;2023-01-16T14:41:55;7.80;99.90
23385;DHT22;11865;45.394;10.978;2023-01-16T14:44:58;7.70;99.90
23385;DHT22;11865;45.394;10.978;2023-01-16T14:47:45;7.90;99.90
23385;DHT22;11865;45.394;10.978;2023-01-16T14:53:49;7.90;99.90
23385;DHT22;11865;45.394;10.978;2023-01-16T14:56:37;7.80;99.90
23385;DHT22;11865;45.394;10.978;2023-01-16T14:59:10;7.80;99.90
23385;DHT22;11865;45.394;10.978;2023-01-16T15:04:52;7.70;99.90
23385;DHT22;11865;45.394;10.978;2023-01-16T15:07:23;7.60;99.90
23385;DHT22;11865;45.394;10.978;2023-01-16T15:09:51;7.60;99.90
23385;DHT22;11865;45.394;10.978;2023-01-16T15:12:20;7.70;99.90
23385;DHT22;11865;45.394;10.978;2023-01-16T15:14:53;7.60;99.90
23385;DHT22;11865;45.394;10.978;2023-01-16T15:20:17;7.60;99.90
23385;DHT22;11865;45.394;10.978;2023-01-16T15:23:05;7.60;99.90
23385;DHT22;11865;45.394;10.978;2023-01-16T15:30:45;7.60;99.90
23385;DHT22;11865;45.394;10.978;2023-01-16T15:33:25;7.60;99.90
23385;DHT22;11865;45.394;10.978;2023-01-16T15:38:51;7.60;99.90
23385;DHT22;11865;45.394;10.978;2023-01-16T15:41:22;7.60;99.90
23385;DHT22;11865;45.394;10.978;2023-01-16T15:44:14;7.60;99.90
23385;DHT22;11865;45.394;10.978;2023-01-16T15:52:19;7.60;99.90
23385;DHT22;11865;45.394;10.978;2023-01-16T15:54:47;7.50;99.90
23385;DHT22;11865;45.394;10.978;2023-01-16T15:57:15;7.50;99.90
23385;DHT22;11865;45.394;10.978;2023-01-16T15:59:52;7.50;99.90
23385;DHT22;11865;45.394;10.978;2023-01-16T16:02:21;7.50;99.90
23385;DHT22;11865;45.394;10.978;2023-01-16T16:04:51;7.60;99.90
23385;DHT22;11865;45.394;10.978;2023-01-16T16:07:20;7.50;99.90
23385;DHT22;11865;45.394;10.978;2023-01-16T16:09:48;7.50;99.90
23385;DHT22;11865;45.394;10.978;2023-01-16T16:12:17;7.50;99.90
23385;DHT22;11865;45.394;10.978;2023-01-16T16:14:46;7.50;99.90
23385;DHT22;11865;45.394;10.978;2023-01-16T16:17:33;7.50;99.90
23385;DHT22;11865;45.394;10.978;2023-01-16T16:25:35;7.40;99.90
23385;DHT22;11865;45.394;10.978;2023-01-16T16:28:03;7.40;99.90
23385;DHT22;11865;45.394;10.978;2023-01-16T16:30:31;7.40;99.90
23385;DHT22;11865;45.394;10.978;2023-01-16T16:32:59;7.50;99.90
23385;DHT22;11865;45.394;10.978;2023-01-16T16:35:28;7.50;99.90
23385;DHT22;11865;45.394;10.978;2023-01-16T16:37:59;7.40;99.90
23385;DHT22;11865;45.394;10.978;2023-01-16T16:40:27;7.40;99.90
23385;DHT22;11865;45.394;10.978;2023-01-16T16:42:58;7.40;99.90
23385;DHT22;11865;45.394;10.978;2023-01-16T16:45:29;7.30;99.90
23385;DHT22;11865;45.394;10.978;2023-01-16T16:48:18;7.30;99.90
23385;DHT22;11865;45.394;10.978;2023-01-16T16:50:46;7.30;99.90
23385;DHT22;11865;45.394;10.978;2023-01-16T16:53:23;7.30;99.90
23385;DHT22;11865;45.394;10.978;2023-01-16T16:58:19;7.40;99.90
23385;DHT22;11865;45.394;10.978;2023-01-16T17:00:47;7.30;99.90
23385;DHT22;11865;45.394;10.978;2023-01-16T17:03:21;7.40;99.90
23385;DHT22;11865;45.394;10.978;2023-01-16T17:05:49;7.40;99.90
23385;DHT22;11865;45.394;10.978;2023-01-16T17:08:21;7.40;99.90
23385;DHT22;11865;45.394;10.978;2023-01-16T17:10:49;7.40;99.90
23385;DHT22;11865;45.394;10.978;2023-01-16T17:13:18;7.50;99.90
23385;DHT22;11865;45.394;10.978;2023-01-16T17:15:46;7.40;99.90
23385;DHT22;11865;45.394;10.978;2023-01-16T17:18:14;7.40;99.90
23385;DHT22;11865;45.394;10.978;2023-01-16T17:20:42;7.40;99.90
23385;DHT22;11865;45.394;10.978;2023-01-16T17:23:13;7.40;99.90
23385;DHT22;11865;45.394;10.978;2023-01-16T17:25:40;7.40;99.90
23385;DHT22;11865;45.394;10.978;2023-01-16T17:28:09;7.40;99.90
23385;DHT22;11865;45.394;10.978;2023-01-16T17:30:37;7.40;99.90
23385;DHT22;11865;45.394;10.978;2023-01-16T17:33:11;7.40;99.90
23385;DHT22;11865;45.394;10.978;2023-01-16T17:35:40;7.40;99.90
23385;DHT22;11865;45.394;10.978;2023-01-16T17:38:15;7.30;99.90
23385;DHT22;11865;45.394;10.978;2023-01-16T17:40:43;7.10;99.90
23385;DHT22;11865;45.394;10.978;2023-01-16T17:43:15;7.00;99.90
23385;DHT22;11865;45.394;10.978;2023-01-16T17:46:04;7.00;99.90
23385;DHT22;11865;45.394;10.978;2023-01-16T17:48:32;7.00;99.90
23385;DHT22;11865;45.394;10.978;2023-01-16T17:50:59;7.00;99.90
23385;DHT22;11865;45.394;10.978;2023-01-16T17:53:27;7.00;99.90
23385;DHT22;11865;45.394;10.978;2023-01-16T17:55:56;6.90;99.90
23385;DHT22;11865;45.394;10.978;2023-01-16T17:58:24;7.00;99.90
23385;DHT22;11865;45.394;10.978;2023-01-16T18:00:56;7.00;99.90
23385;DHT22;11865;45.394;10.978;2023-01-16T18:03:23;7.00;99.90
23385;DHT22;11865;45.394;10.978;2023-01-16T18:05:50;7.00;99.90
23385;DHT22;11865;45.394;10.978;2023-01-16T18:08:18;7.00;99.90
23385;DHT22;11865;45.394;10.978;2023-01-16T18:10:45;7.00;99.90
23385;DHT22;11865;45.394;10.978;2023-01-16T18:13:13;7.00;99.90
23385;DHT22;11865;45.394;10.978;2023-01-16T18:15:58;7.10;99.90
23385;DHT22;11865;45.394;10.978;2023-01-16T18:18:48;7.20;99.90
23385;DHT22;11865;45.394;10.978;2023-01-16T18:21:15;7.10;99.90
23385;DHT22;11865;45.394;10.978;2023-01-16T18:24:01;7.10;99.90